sensor_id;sensor_type;location;lat;lon;timestamp;P1;durP1;ratioP1;P2;durP2;ratioP2
1563;SDS011;775;51.958;7.976;2023-12-22T00:02:12;24.50;;;3.70;;
1563;SDS011;775;51.958;7.976;2023-12-22T00:04:59;26.03;;;3.20;;
1563;SDS011;775;51.958;7.976;2023-12-22T00:07:47;22.83;;;4.90;;
1563;SDS011;775;51.958;7.976;2023-12-22T00:10:34;26.70;;;3.40;;
1563;SDS011;775;51.958;7.976;2023-12-22T00:13:21;26.70;;;3.20;;
1563;SDS011;775;51.958;7.976;2023-12-22T00:16:10;24.73;;;3.20;;
1563;SDS011;775;51.958;7.976;2023-12-22T00:18:57;22.37;;;3.43;;
1563;SDS011;775;51.958;7.976;2023-12-22T00:21:45;26.57;;;3.73;;
1563;SDS011;775;51.958;7.976;2023-12-22T00:24:32;27.73;;;3.60;;
1563;SDS011;775;51.958;7.976;2023-12-22T00:27:20;21.20;;;3.57;;
1563;SDS011;775;51.958;7.976;2023-12-22T00:30:08;24.50;;;3.17;;
1563;SDS011;775;51.958;7.976;2023-12-22T00:32:56;29.47;;;6.20;;
1563;SDS011;775;51.958;7.976;2023-12-22T00:35:44;22.33;;;2.90;;
1563;SDS011;775;51.958;7.976;2023-12-22T00:38:31;23.73;;;3.13;;
1563;SDS011;775;51.958;7.976;2023-12-22T00:41:19;22.37;;;3.47;;
1563;SDS011;775;51.958;7.976;2023-12-22T00:44:06;20.13;;;3.40;;
1563;SDS011;775;51.958;7.976;2023-12-22T00:46:54;24.80;;;3.30;;
1563;SDS011;775;51.958;7.976;2023-12-22T00:49:42;27.40;;;4.13;;
1563;SDS011;775;51.958;7.976;2023-12-22T00:52:30;27.73;;;4.17;;
1563;SDS011;775;51.958;7.976;2023-12-22T00:55:17;24.20;;;3.90;;
1563;SDS011;775;51.958;7.976;2023-12-22T00:58:05;24.87;;;3.30;;
1563;SDS011;775;51.958;7.976;2023-12-22T01:00:52;21.33;;;3.40;;
1563;SDS011;775;51.958;7.976;2023-12-22T01:03:40;25.60;;;3.33;;
1563;SDS011;775;51.958;7.976;2023-12-22T01:06:28;19.70;;;3.20;;
1563;SDS011;775;51.958;7.976;2023-12-22T01:09:16;19.73;;;3.10;;
1563;SDS011;775;51.958;7.976;2023-12-22T01:12:05;22.90;;;3.43;;
1563;SDS011;775;51.958;7.976;2023-12-22T01:14:53;30.30;;;3.80;;
1563;SDS011;775;51.958;7.976;2023-12-22T01:17:40;25.00;;;3.30;;
1563;SDS011;775;51.958;7.976;2023-12-22T01:20:28;23.50;;;2.80;;
1563;SDS011;775;51.958;7.976;2023-12-22T01:23:16;18.90;;;3.13;;
1563;SDS011;775;51.958;7.976;2023-12-22T01:26:04;27.57;;;4.07;;
1563;SDS011;775;51.958;7.976;2023-12-22T01:28:51;19.40;;;3.20;;
1563;SDS011;775;51.958;7.976;2023-12-22T01:31:39;32.67;;;4.30;;
1563;SDS011;775;51.958;7.976;2023-12-22T01:34:26;24.40;;;3.00;;
1563;SDS011;775;51.958;7.976;2023-12-22T01:37:13;24.27;;;2.90;;
1563;SDS011;775;51.958;7.976;2023-12-22T01:40:02;25.27;;;3.20;;
1563;SDS011;775;51.958;7.976;2023-12-22T01:42:50;22.53;;;2.90;;
1563;SDS011;775;51.958;7.976;2023-12-22T01:45:37;19.13;;;2.63;;
1563;SDS011;775;51.958;7.976;2023-12-22T01:48:28;22.73;;;3.17;;
1563;SDS011;775;51.958;7.976;2023-12-22T01:51:17;24.07;;;3.40;;
1563;SDS011;775;51.958;7.976;2023-12-22T01:54:05;24.97;;;2.83;;
1563;SDS011;775;51.958;7.976;2023-12-22T01:56:54;23.80;;;3.57;;
1563;SDS011;775;51.958;7.976;2023-12-22T01:59:41;19.70;;;2.67;;
1563;SDS011;775;51.958;7.976;2023-12-22T02:02:29;22.90;;;3.27;;
1563;SDS011;775;51.958;7.976;2023-12-22T02:05:16;21.27;;;3.03;;
1563;SDS011;775;51.958;7.976;2023-12-22T02:08:04;24.30;;;3.50;;
1563;SDS011;775;51.958;7.976;2023-12-22T02:10:51;21.90;;;3.07;;
1563;SDS011;775;51.958;7.976;2023-12-22T02:13:40;24.93;;;3.10;;
1563;SDS011;775;51.958;7.976;2023-12-22T02:16:31;23.37;;;2.70;;
1563;SDS011;775;51.958;7.976;2023-12-22T02:19:21;23.20;;;3.43;;
1563;SDS011;775;51.958;7.976;2023-12-22T02:22:11;24.90;;;3.43;;
1563;SDS011;775;51.958;7.976;2023-12-22T02:25:00;25.93;;;3.17;;
1563;SDS011;775;51.958;7.976;2023-12-22T02:27:49;22.67;;;2.83;;
1563;SDS011;775;51.958;7.976;2023-12-22T02:30:38;24.60;;;3.37;;
1563;SDS011;775;51.958;7.976;2023-12-22T02:33:26;24.13;;;2.63;;
1563;SDS011;775;51.958;7.976;2023-12-22T02:36:15;21.30;;;2.73;;
1563;SDS011;775;51.958;7.976;2023-12-22T02:39:04;23.03;;;3.13;;
1563;SDS011;775;51.958;7.976;2023-12-22T02:41:54;23.63;;;3.23;;
1563;SDS011;775;51.958;7.976;2023-12-22T02:44:41;21.07;;;3.67;;
1563;SDS011;775;51.958;7.976;2023-12-22T02:47:29;20.70;;;3.40;;
1563;SDS011;775;51.958;7.976;2023-12-22T02:50:17;26.07;;;3.30;;
1563;SDS011;775;51.958;7.976;2023-12-22T02:53:05;20.90;;;2.77;;
1563;SDS011;775;51.958;7.976;2023-12-22T02:55:52;23.47;;;3.20;;
1563;SDS011;775;51.958;7.976;2023-12-22T02:58:41;18.67;;;2.83;;
1563;SDS011;775;51.958;7.976;2023-12-22T03:01:28;23.47;;;4.00;;
1563;SDS011;775;51.958;7.976;2023-12-22T03:04:16;21.23;;;2.90;;
1563;SDS011;775;51.958;7.976;2023-12-22T03:07:03;20.67;;;2.50;;
1563;SDS011;775;51.958;7.976;2023-12-22T03:09:51;19.07;;;2.40;;
1563;SDS011;775;51.958;7.976;2023-12-22T03:12:38;21.27;;;3.00;;
1563;SDS011;775;51.958;7.976;2023-12-22T03:15:27;23.03;;;2.90;;
1563;SDS011;775;51.958;7.976;2023-12-22T03:18:14;21.20;;;2.97;;
1563;SDS011;775;51.958;7.976;2023-12-22T03:21:02;20.80;;;2.33;;
1563;SDS011;775;51.958;7.976;2023-12-22T03:23:49;21.00;;;4.63;;
1563;SDS011;775;51.958;7.976;2023-12-22T03:26:37;21.33;;;4.20;;
1563;SDS011;775;51.958;7.976;2023-12-22T03:29:24;25.63;;;2.80;;
1563;SDS011;775;51.958;7.976;2023-12-22T03:32:13;22.73;;;2.33;;
1563;SDS011;775;51.958;7.976;2023-12-22T03:35:00;24.23;;;2.80;;
1563;SDS011;775;51.958;7.976;2023-12-22T03:37:47;23.93;;;2.57;;
1563;SDS011;775;51.958;7.976;2023-12-22T03:40:35;18.90;;;2.40;;
1563;SDS011;775;51.958;7.976;2023-12-22T03:43:23;17.47;;;2.00;;
1563;SDS011;775;51.958;7.976;2023-12-22T03:46:10;19.23;;;2.20;;
1563;SDS011;775;51.958;7.976;2023-12-22T03:48:59;16.83;;;2.13;;
1563;SDS011;775;51.958;7.976;2023-12-22T03:51:47;15.37;;;1.63;;
1563;SDS011;775;51.958;7.976;2023-12-22T03:54:34;17.27;;;1.70;;
1563;SDS011;775;51.958;7.976;2023-12-22T03:57:22;17.47;;;1.87;;
1563;SDS011;775;51.958;7.976;2023-12-22T04:00:09;17.97;;;2.20;;
1563;SDS011;775;51.958;7.976;2023-12-22T04:02:58;17.73;;;1.80;;
1563;SDS011;775;51.958;7.976;2023-12-22T04:05:47;16.90;;;1.70;;
1563;SDS011;775;51.958;7.976;2023-12-22T04:08:35;18.10;;;2.10;;
1563;SDS011;775;51.958;7.976;2023-12-22T04:11:22;17.57;;;2.10;;
1563;SDS011;775;51.958;7.976;2023-12-22T04:14:09;17.90;;;2.10;;
1563;SDS011;775;51.958;7.976;2023-12-22T04:16:57;16.80;;;2.00;;
1563;SDS011;775;51.958;7.976;2023-12-22T04:19:44;19.50;;;2.03;;
1563;SDS011;775;51.958;7.976;2023-12-22T04:22:33;17.40;;;1.93;;
1563;SDS011;775;51.958;7.976;2023-12-22T04:25:20;17.40;;;1.90;;
1563;SDS011;775;51.958;7.976;2023-12-22T04:28:10;16.90;;;2.40;;
1563;SDS011;775;51.958;7.976;2023-12-22T04:30:57;20.20;;;2.30;;
1563;SDS011;775;51.958;7.976;2023-12-22T04:33:44;16.57;;;1.90;;
1563;SDS011;775;51.958;7.976;2023-12-22T04:36:32;16.97;;;1.90;;
1563;SDS011;775;51.958;7.976;2023-12-22T04:39:21;22.07;;;2.63;;
1563;SDS011;775;51.958;7.976;2023-12-22T04:42:08;19.70;;;2.00;;
1563;SDS011;775;51.958;7.976;2023-12-22T04:44:56;17.50;;;1.87;;
1563;SDS011;775;51.958;7.976;2023-12-22T04:47:43;19.37;;;1.80;;
1563;SDS011;775;51.958;7.976;2023-12-22T04:50:31;18.43;;;1.70;;
1563;SDS011;775;51.958;7.976;2023-12-22T04:53:18;17.10;;;1.63;;
1563;SDS011;775;51.958;7.976;2023-12-22T04:56:07;14.70;;;1.57;;
1563;SDS011;775;51.958;7.976;2023-12-22T04:58:54;15.50;;;2.07;;
1563;SDS011;775;51.958;7.976;2023-12-22T05:01:42;16.07;;;2.00;;
1563;SDS011;775;51.958;7.976;2023-12-22T05:04:31;17.23;;;1.70;;
1563;SDS011;775;51.958;7.976;2023-12-22T05:07:19;17.07;;;1.83;;
1563;SDS011;775;51.958;7.976;2023-12-22T05:10:07;22.30;;;2.10;;
1563;SDS011;775;51.958;7.976;2023-12-22T05:12:55;18.83;;;2.40;;
1563;SDS011;775;51.958;7.976;2023-12-22T05:15:43;16.07;;;1.80;;
1563;SDS011;775;51.958;7.976;2023-12-22T05:18:30;19.13;;;1.93;;
1563;SDS011;775;51.958;7.976;2023-12-22T05:21:18;18.20;;;1.90;;
1563;SDS011;775;51.958;7.976;2023-12-22T05:24:06;17.00;;;1.90;;
1563;SDS011;775;51.958;7.976;2023-12-22T05:26:54;17.07;;;1.93;;
1563;SDS011;775;51.958;7.976;2023-12-22T05:29:42;16.30;;;1.77;;
1563;SDS011;775;51.958;7.976;2023-12-22T05:32:30;21.03;;;2.33;;
1563;SDS011;775;51.958;7.976;2023-12-22T05:35:17;16.20;;;1.80;;
1563;SDS011;775;51.958;7.976;2023-12-22T05:38:05;17.67;;;2.17;;
1563;SDS011;775;51.958;7.976;2023-12-22T05:40:52;17.73;;;1.90;;
1563;SDS011;775;51.958;7.976;2023-12-22T05:43:40;22.57;;;2.80;;
1563;SDS011;775;51.958;7.976;2023-12-22T05:46:29;19.47;;;2.17;;
1563;SDS011;775;51.958;7.976;2023-12-22T05:49:16;18.30;;;2.93;;
1563;SDS011;775;51.958;7.976;2023-12-22T05:52:04;21.10;;;3.00;;
1563;SDS011;775;51.958;7.976;2023-12-22T05:54:51;25.00;;;2.47;;
1563;SDS011;775;51.958;7.976;2023-12-22T05:57:39;19.57;;;1.87;;
1563;SDS011;775;51.958;7.976;2023-12-22T06:00:27;22.53;;;2.70;;
1563;SDS011;775;51.958;7.976;2023-12-22T06:03:15;17.00;;;2.00;;
1563;SDS011;775;51.958;7.976;2023-12-22T06:06:03;23.60;;;2.10;;
1563;SDS011;775;51.958;7.976;2023-12-22T06:08:50;21.07;;;2.70;;
1563;SDS011;775;51.958;7.976;2023-12-22T06:11:38;19.17;;;2.20;;
1563;SDS011;775;51.958;7.976;2023-12-22T06:14:25;17.77;;;2.83;;
1563;SDS011;775;51.958;7.976;2023-12-22T06:17:13;21.53;;;2.80;;
1563;SDS011;775;51.958;7.976;2023-12-22T06:20:01;19.63;;;2.23;;
1563;SDS011;775;51.958;7.976;2023-12-22T06:22:49;19.53;;;2.63;;
1563;SDS011;775;51.958;7.976;2023-12-22T06:25:36;21.20;;;2.80;;
1563;SDS011;775;51.958;7.976;2023-12-22T06:28:24;23.50;;;2.93;;
1563;SDS011;775;51.958;7.976;2023-12-22T06:31:15;20.90;;;2.63;;
1563;SDS011;775;51.958;7.976;2023-12-22T06:34:04;19.40;;;2.40;;
1563;SDS011;775;51.958;7.976;2023-12-22T06:36:53;21.70;;;2.70;;
1563;SDS011;775;51.958;7.976;2023-12-22T06:39:40;19.67;;;3.20;;
1563;SDS011;775;51.958;7.976;2023-12-22T06:42:28;20.70;;;2.80;;
1563;SDS011;775;51.958;7.976;2023-12-22T06:45:15;19.87;;;2.43;;
1563;SDS011;775;51.958;7.976;2023-12-22T06:48:03;21.47;;;2.53;;
1563;SDS011;775;51.958;7.976;2023-12-22T06:50:50;20.63;;;2.70;;
1563;SDS011;775;51.958;7.976;2023-12-22T06:53:39;20.40;;;2.97;;
1563;SDS011;775;51.958;7.976;2023-12-22T06:56:27;22.23;;;3.10;;
1563;SDS011;775;51.958;7.976;2023-12-22T06:59:15;21.43;;;2.73;;
1563;SDS011;775;51.958;7.976;2023-12-22T07:02:02;22.87;;;2.80;;
1563;SDS011;775;51.958;7.976;2023-12-22T07:07:56;21.07;;;2.90;;
1563;SDS011;775;51.958;7.976;2023-12-22T07:10:45;21.43;;;3.00;;
1563;SDS011;775;51.958;7.976;2023-12-22T07:13:32;19.53;;;3.23;;
1563;SDS011;775;51.958;7.976;2023-12-22T07:16:19;21.40;;;3.17;;
1563;SDS011;775;51.958;7.976;2023-12-22T07:19:07;20.23;;;2.20;;
1563;SDS011;775;51.958;7.976;2023-12-22T07:21:54;25.80;;;2.97;;
1563;SDS011;775;51.958;7.976;2023-12-22T07:24:42;20.77;;;2.37;;
1563;SDS011;775;51.958;7.976;2023-12-22T07:27:30;19.50;;;2.50;;
1563;SDS011;775;51.958;7.976;2023-12-22T07:30:18;22.17;;;2.27;;
1563;SDS011;775;51.958;7.976;2023-12-22T07:33:05;24.30;;;3.00;;
1563;SDS011;775;51.958;7.976;2023-12-22T07:35:53;24.83;;;3.27;;
1563;SDS011;775;51.958;7.976;2023-12-22T07:38:40;27.60;;;2.83;;
1563;SDS011;775;51.958;7.976;2023-12-22T07:41:28;22.17;;;2.47;;
1563;SDS011;775;51.958;7.976;2023-12-22T07:44:16;22.80;;;3.17;;
1563;SDS011;775;51.958;7.976;2023-12-22T07:47:04;25.07;;;3.93;;
1563;SDS011;775;51.958;7.976;2023-12-22T07:49:52;19.70;;;2.40;;
1563;SDS011;775;51.958;7.976;2023-12-22T07:52:40;21.90;;;3.00;;
1563;SDS011;775;51.958;7.976;2023-12-22T07:55:29;25.70;;;3.23;;
1563;SDS011;775;51.958;7.976;2023-12-22T07:58:16;22.07;;;3.60;;
1563;SDS011;775;51.958;7.976;2023-12-22T08:01:06;23.37;;;3.53;;
1563;SDS011;775;51.958;7.976;2023-12-22T08:03:53;20.77;;;2.47;;
1563;SDS011;775;51.958;7.976;2023-12-22T08:06:41;21.50;;;2.50;;
1563;SDS011;775;51.958;7.976;2023-12-22T08:09:28;22.87;;;3.03;;
1563;SDS011;775;51.958;7.976;2023-12-22T08:12:15;19.50;;;2.93;;
1563;SDS011;775;51.958;7.976;2023-12-22T08:15:03;22.90;;;3.10;;
1563;SDS011;775;51.958;7.976;2023-12-22T08:17:52;17.33;;;1.87;;
1563;SDS011;775;51.958;7.976;2023-12-22T08:20:39;20.00;;;2.50;;
1563;SDS011;775;51.958;7.976;2023-12-22T08:23:27;21.93;;;2.10;;
1563;SDS011;775;51.958;7.976;2023-12-22T08:26:14;22.97;;;2.70;;
1563;SDS011;775;51.958;7.976;2023-12-22T08:29:03;16.83;;;2.30;;
1563;SDS011;775;51.958;7.976;2023-12-22T08:31:50;17.17;;;2.17;;
1563;SDS011;775;51.958;7.976;2023-12-22T08:34:40;18.43;;;2.77;;
1563;SDS011;775;51.958;7.976;2023-12-22T08:37:27;15.63;;;1.53;;
1563;SDS011;775;51.958;7.976;2023-12-22T08:40:15;18.43;;;2.00;;
1563;SDS011;775;51.958;7.976;2023-12-22T08:43:02;16.40;;;1.67;;
1563;SDS011;775;51.958;7.976;2023-12-22T08:45:51;16.90;;;1.77;;
1563;SDS011;775;51.958;7.976;2023-12-22T08:48:39;18.23;;;1.90;;
1563;SDS011;775;51.958;7.976;2023-12-22T08:51:28;17.33;;;1.83;;
1563;SDS011;775;51.958;7.976;2023-12-22T08:54:15;16.27;;;1.90;;
1563;SDS011;775;51.958;7.976;2023-12-22T08:57:03;15.70;;;1.63;;
1563;SDS011;775;51.958;7.976;2023-12-22T08:59:50;16.40;;;1.90;;
1563;SDS011;775;51.958;7.976;2023-12-22T09:02:38;15.20;;;1.60;;
1563;SDS011;775;51.958;7.976;2023-12-22T09:05:25;17.47;;;1.63;;
1563;SDS011;775;51.958;7.976;2023-12-22T09:08:14;15.97;;;1.80;;
1563;SDS011;775;51.958;7.976;2023-12-22T09:11:01;14.87;;;1.80;;
1563;SDS011;775;51.958;7.976;2023-12-22T09:13:49;15.13;;;1.50;;
1563;SDS011;775;51.958;7.976;2023-12-22T09:16:37;16.43;;;2.20;;
1563;SDS011;775;51.958;7.976;2023-12-22T09:19:24;15.73;;;1.40;;
1563;SDS011;775;51.958;7.976;2023-12-22T09:22:12;17.23;;;1.80;;
1563;SDS011;775;51.958;7.976;2023-12-22T09:25:01;19.80;;;2.17;;
1563;SDS011;775;51.958;7.976;2023-12-22T09:27:49;17.97;;;2.20;;
1563;SDS011;775;51.958;7.976;2023-12-22T09:30:36;21.10;;;1.80;;
1563;SDS011;775;51.958;7.976;2023-12-22T09:33:24;16.83;;;2.27;;
1563;SDS011;775;51.958;7.976;2023-12-22T09:36:11;20.93;;;2.20;;
1563;SDS011;775;51.958;7.976;2023-12-22T09:38:59;17.73;;;2.60;;
1563;SDS011;775;51.958;7.976;2023-12-22T09:41:48;18.03;;;2.40;;
1563;SDS011;775;51.958;7.976;2023-12-22T09:44:36;17.40;;;2.37;;
1563;SDS011;775;51.958;7.976;2023-12-22T09:47:25;18.20;;;3.13;;
1563;SDS011;775;51.958;7.976;2023-12-22T09:50:14;19.03;;;2.17;;
1563;SDS011;775;51.958;7.976;2023-12-22T09:53:02;17.53;;;2.00;;
1563;SDS011;775;51.958;7.976;2023-12-22T09:55:50;16.00;;;1.53;;
1563;SDS011;775;51.958;7.976;2023-12-22T09:58:39;19.67;;;3.50;;
1563;SDS011;775;51.958;7.976;2023-12-22T10:01:27;16.23;;;1.70;;
1563;SDS011;775;51.958;7.976;2023-12-22T10:04:15;19.70;;;2.20;;
1563;SDS011;775;51.958;7.976;2023-12-22T10:07:03;15.50;;;1.50;;
1563;SDS011;775;51.958;7.976;2023-12-22T10:09:51;18.40;;;1.60;;
1563;SDS011;775;51.958;7.976;2023-12-22T10:12:39;20.23;;;2.27;;
1563;SDS011;775;51.958;7.976;2023-12-22T10:15:29;18.80;;;1.77;;
1563;SDS011;775;51.958;7.976;2023-12-22T10:18:16;18.43;;;1.80;;
1563;SDS011;775;51.958;7.976;2023-12-22T10:21:04;16.60;;;1.77;;
1563;SDS011;775;51.958;7.976;2023-12-22T10:23:52;16.40;;;1.83;;
1563;SDS011;775;51.958;7.976;2023-12-22T10:26:39;17.53;;;2.17;;
1563;SDS011;775;51.958;7.976;2023-12-22T10:29:26;18.87;;;1.90;;
1563;SDS011;775;51.958;7.976;2023-12-22T10:32:15;15.93;;;1.63;;
1563;SDS011;775;51.958;7.976;2023-12-22T10:35:03;17.63;;;1.73;;
1563;SDS011;775;51.958;7.976;2023-12-22T10:37:50;16.30;;;1.90;;
1563;SDS011;775;51.958;7.976;2023-12-22T10:40:39;16.80;;;2.17;;
1563;SDS011;775;51.958;7.976;2023-12-22T10:43:26;18.20;;;2.23;;
1563;SDS011;775;51.958;7.976;2023-12-22T10:46:13;17.13;;;1.83;;
1563;SDS011;775;51.958;7.976;2023-12-22T10:49:02;18.00;;;2.10;;
1563;SDS011;775;51.958;7.976;2023-12-22T10:51:50;16.03;;;2.17;;
1563;SDS011;775;51.958;7.976;2023-12-22T10:54:38;20.33;;;2.87;;
1563;SDS011;775;51.958;7.976;2023-12-22T10:57:26;19.13;;;2.47;;
1563;SDS011;775;51.958;7.976;2023-12-22T11:00:14;17.77;;;2.00;;
1563;SDS011;775;51.958;7.976;2023-12-22T11:03:03;18.73;;;2.40;;
1563;SDS011;775;51.958;7.976;2023-12-22T11:05:55;16.23;;;2.10;;
1563;SDS011;775;51.958;7.976;2023-12-22T11:08:45;16.37;;;2.50;;
1563;SDS011;775;51.958;7.976;2023-12-22T11:11:33;17.50;;;2.13;;
1563;SDS011;775;51.958;7.976;2023-12-22T11:14:21;19.27;;;2.00;;
1563;SDS011;775;51.958;7.976;2023-12-22T11:17:10;16.80;;;2.20;;
1563;SDS011;775;51.958;7.976;2023-12-22T11:19:58;16.13;;;1.90;;
1563;SDS011;775;51.958;7.976;2023-12-22T11:22:47;16.00;;;2.30;;
1563;SDS011;775;51.958;7.976;2023-12-22T11:25:36;15.60;;;1.90;;
1563;SDS011;775;51.958;7.976;2023-12-22T11:28:25;15.70;;;1.73;;
1563;SDS011;775;51.958;7.976;2023-12-22T11:31:13;15.40;;;1.60;;
1563;SDS011;775;51.958;7.976;2023-12-22T11:34:01;15.90;;;2.10;;
1563;SDS011;775;51.958;7.976;2023-12-22T11:36:49;16.70;;;1.70;;
1563;SDS011;775;51.958;7.976;2023-12-22T11:39:38;14.97;;;1.67;;
1563;SDS011;775;51.958;7.976;2023-12-22T11:42:28;14.50;;;1.60;;
1563;SDS011;775;51.958;7.976;2023-12-22T11:45:17;15.63;;;1.47;;
1563;SDS011;775;51.958;7.976;2023-12-22T11:48:05;14.33;;;1.30;;
1563;SDS011;775;51.958;7.976;2023-12-22T11:50:53;15.00;;;1.60;;
1563;SDS011;775;51.958;7.976;2023-12-22T11:53:41;15.77;;;1.57;;
1563;SDS011;775;51.958;7.976;2023-12-22T11:56:30;16.20;;;1.80;;
1563;SDS011;775;51.958;7.976;2023-12-22T11:59:17;14.60;;;1.33;;
1563;SDS011;775;51.958;7.976;2023-12-22T12:02:07;14.80;;;1.30;;
1563;SDS011;775;51.958;7.976;2023-12-22T12:04:56;14.90;;;1.30;;
1563;SDS011;775;51.958;7.976;2023-12-22T12:07:45;14.70;;;1.30;;
1563;SDS011;775;51.958;7.976;2023-12-22T12:10:50;15.80;;;1.43;;
1563;SDS011;775;51.958;7.976;2023-12-22T12:13:42;15.13;;;1.37;;
1563;SDS011;775;51.958;7.976;2023-12-22T12:16:31;15.87;;;1.23;;
1563;SDS011;775;51.958;7.976;2023-12-22T12:19:18;14.50;;;1.57;;
1563;SDS011;775;51.958;7.976;2023-12-22T12:22:06;14.60;;;1.17;;
1563;SDS011;775;51.958;7.976;2023-12-22T12:24:53;14.40;;;1.30;;
1563;SDS011;775;51.958;7.976;2023-12-22T12:27:42;15.07;;;1.60;;
1563;SDS011;775;51.958;7.976;2023-12-22T12:30:31;15.47;;;1.60;;
1563;SDS011;775;51.958;7.976;2023-12-22T12:33:19;14.07;;;1.27;;
1563;SDS011;775;51.958;7.976;2023-12-22T12:36:07;16.10;;;1.50;;
1563;SDS011;775;51.958;7.976;2023-12-22T12:38:55;16.63;;;1.57;;
1563;SDS011;775;51.958;7.976;2023-12-22T12:41:43;16.87;;;1.63;;
1563;SDS011;775;51.958;7.976;2023-12-22T12:44:31;15.87;;;1.50;;
1563;SDS011;775;51.958;7.976;2023-12-22T12:47:20;14.50;;;1.40;;
1563;SDS011;775;51.958;7.976;2023-12-22T12:50:08;14.60;;;1.20;;
1563;SDS011;775;51.958;7.976;2023-12-22T12:52:56;14.30;;;1.30;;
1563;SDS011;775;51.958;7.976;2023-12-22T12:55:44;14.37;;;1.33;;
1563;SDS011;775;51.958;7.976;2023-12-22T12:58:32;14.60;;;1.60;;
1563;SDS011;775;51.958;7.976;2023-12-22T13:01:21;15.90;;;1.50;;
1563;SDS011;775;51.958;7.976;2023-12-22T13:04:09;14.43;;;1.50;;
1563;SDS011;775;51.958;7.976;2023-12-22T13:06:58;14.70;;;1.50;;
1563;SDS011;775;51.958;7.976;2023-12-22T13:09:45;17.70;;;1.40;;
1563;SDS011;775;51.958;7.976;2023-12-22T13:12:33;15.27;;;1.47;;
1563;SDS011;775;51.958;7.976;2023-12-22T13:15:22;15.30;;;1.33;;
1563;SDS011;775;51.958;7.976;2023-12-22T13:18:09;14.50;;;1.57;;
1563;SDS011;775;51.958;7.976;2023-12-22T13:20:58;14.40;;;1.37;;
1563;SDS011;775;51.958;7.976;2023-12-22T13:23:45;15.53;;;1.60;;
1563;SDS011;775;51.958;7.976;2023-12-22T13:26:33;14.57;;;1.30;;
1563;SDS011;775;51.958;7.976;2023-12-22T13:29:20;14.50;;;1.40;;
1563;SDS011;775;51.958;7.976;2023-12-22T13:32:07;16.70;;;1.40;;
1563;SDS011;775;51.958;7.976;2023-12-22T13:34:55;14.70;;;1.40;;
1563;SDS011;775;51.958;7.976;2023-12-22T13:37:44;15.97;;;1.60;;
1563;SDS011;775;51.958;7.976;2023-12-22T13:40:31;15.53;;;1.33;;
1563;SDS011;775;51.958;7.976;2023-12-22T13:43:19;14.80;;;1.50;;
1563;SDS011;775;51.958;7.976;2023-12-22T13:46:06;15.23;;;1.37;;
1563;SDS011;775;51.958;7.976;2023-12-22T13:48:54;14.17;;;1.10;;
1563;SDS011;775;51.958;7.976;2023-12-22T13:51:43;14.23;;;1.30;;
1563;SDS011;775;51.958;7.976;2023-12-22T13:54:34;14.37;;;1.33;;
1563;SDS011;775;51.958;7.976;2023-12-22T13:57:23;15.67;;;1.73;;
1563;SDS011;775;51.958;7.976;2023-12-22T14:00:26;15.50;;;1.23;;
1563;SDS011;775;51.958;7.976;2023-12-22T14:03:14;14.57;;;1.30;;
1563;SDS011;775;51.958;7.976;2023-12-22T14:06:02;15.00;;;1.80;;
1563;SDS011;775;51.958;7.976;2023-12-22T14:08:53;15.07;;;1.43;;
1563;SDS011;775;51.958;7.976;2023-12-22T14:11:42;14.37;;;1.30;;
1563;SDS011;775;51.958;7.976;2023-12-22T14:14:30;15.00;;;1.87;;
1563;SDS011;775;51.958;7.976;2023-12-22T14:17:17;15.13;;;1.50;;
1563;SDS011;775;51.958;7.976;2023-12-22T14:20:05;15.20;;;1.53;;
1563;SDS011;775;51.958;7.976;2023-12-22T14:22:55;14.70;;;1.40;;
1563;SDS011;775;51.958;7.976;2023-12-22T14:25:42;14.43;;;1.30;;
1563;SDS011;775;51.958;7.976;2023-12-22T14:28:31;14.70;;;1.50;;
1563;SDS011;775;51.958;7.976;2023-12-22T14:31:18;15.10;;;1.70;;
1563;SDS011;775;51.958;7.976;2023-12-22T14:34:07;14.60;;;1.30;;
1563;SDS011;775;51.958;7.976;2023-12-22T14:36:54;15.53;;;1.50;;
1563;SDS011;775;51.958;7.976;2023-12-22T14:39:42;14.40;;;1.57;;
1563;SDS011;775;51.958;7.976;2023-12-22T14:42:29;14.77;;;1.50;;
1563;SDS011;775;51.958;7.976;2023-12-22T14:45:18;15.47;;;1.60;;
1563;SDS011;775;51.958;7.976;2023-12-22T14:48:06;14.50;;;1.47;;
1563;SDS011;775;51.958;7.976;2023-12-22T14:50:53;14.33;;;1.30;;
1563;SDS011;775;51.958;7.976;2023-12-22T14:53:40;15.43;;;1.57;;
1563;SDS011;775;51.958;7.976;2023-12-22T14:56:28;14.17;;;1.20;;
1563;SDS011;775;51.958;7.976;2023-12-22T14:59:16;16.40;;;1.30;;
1563;SDS011;775;51.958;7.976;2023-12-22T15:02:05;15.97;;;1.50;;
1563;SDS011;775;51.958;7.976;2023-12-22T15:04:53;14.70;;;1.53;;
1563;SDS011;775;51.958;7.976;2023-12-22T15:07:40;14.30;;;1.40;;
1563;SDS011;775;51.958;7.976;2023-12-22T15:10:27;15.57;;;1.23;;
1563;SDS011;775;51.958;7.976;2023-12-22T15:13:15;16.23;;;1.50;;
1563;SDS011;775;51.958;7.976;2023-12-22T15:16:03;14.50;;;1.30;;
1563;SDS011;775;51.958;7.976;2023-12-22T15:18:52;14.53;;;1.13;;
1563;SDS011;775;51.958;7.976;2023-12-22T15:21:40;14.70;;;1.57;;
1563;SDS011;775;51.958;7.976;2023-12-22T15:24:27;14.80;;;1.63;;
1563;SDS011;775;51.958;7.976;2023-12-22T15:27:15;16.87;;;1.67;;
1563;SDS011;775;51.958;7.976;2023-12-22T15:30:03;15.40;;;1.80;;
1563;SDS011;775;51.958;7.976;2023-12-22T15:32:51;14.80;;;1.77;;
1563;SDS011;775;51.958;7.976;2023-12-22T15:35:39;16.40;;;1.83;;
1563;SDS011;775;51.958;7.976;2023-12-22T15:38:27;14.80;;;1.70;;
1563;SDS011;775;51.958;7.976;2023-12-22T15:41:14;14.47;;;1.57;;
1563;SDS011;775;51.958;7.976;2023-12-22T15:44:02;14.17;;;1.47;;
1563;SDS011;775;51.958;7.976;2023-12-22T15:46:49;16.20;;;1.80;;
1563;SDS011;775;51.958;7.976;2023-12-22T15:49:37;14.53;;;1.60;;
1563;SDS011;775;51.958;7.976;2023-12-22T15:52:26;14.27;;;1.73;;
1563;SDS011;775;51.958;7.976;2023-12-22T15:55:15;14.00;;;1.37;;
1563;SDS011;775;51.958;7.976;2023-12-22T15:58:03;15.67;;;1.67;;
1563;SDS011;775;51.958;7.976;2023-12-22T16:00:50;14.40;;;1.57;;
1563;SDS011;775;51.958;7.976;2023-12-22T16:03:38;14.43;;;1.50;;
1563;SDS011;775;51.958;7.976;2023-12-22T16:06:26;14.80;;;1.40;;
1563;SDS011;775;51.958;7.976;2023-12-22T16:09:14;14.03;;;1.20;;
1563;SDS011;775;51.958;7.976;2023-12-22T16:12:02;13.97;;;1.50;;
1563;SDS011;775;51.958;7.976;2023-12-22T16:14:50;14.23;;;1.43;;
1563;SDS011;775;51.958;7.976;2023-12-22T16:17:40;14.07;;;1.30;;
1563;SDS011;775;51.958;7.976;2023-12-22T16:20:27;13.93;;;1.40;;
1563;SDS011;775;51.958;7.976;2023-12-22T16:23:15;14.10;;;1.20;;
1563;SDS011;775;51.958;7.976;2023-12-22T16:26:08;14.93;;;1.40;;
1563;SDS011;775;51.958;7.976;2023-12-22T16:28:55;16.40;;;1.40;;
1563;SDS011;775;51.958;7.976;2023-12-22T16:31:43;14.60;;;1.40;;
1563;SDS011;775;51.958;7.976;2023-12-22T16:34:30;14.23;;;1.67;;
1563;SDS011;775;51.958;7.976;2023-12-22T16:37:18;14.70;;;1.57;;
1563;SDS011;775;51.958;7.976;2023-12-22T16:40:06;15.10;;;1.43;;
1563;SDS011;775;51.958;7.976;2023-12-22T16:42:55;14.20;;;1.30;;
1563;SDS011;775;51.958;7.976;2023-12-22T16:45:42;14.90;;;1.10;;
1563;SDS011;775;51.958;7.976;2023-12-22T16:48:30;14.00;;;1.20;;
1563;SDS011;775;51.958;7.976;2023-12-22T16:51:17;14.90;;;1.10;;
1563;SDS011;775;51.958;7.976;2023-12-22T16:54:05;15.27;;;2.07;;
1563;SDS011;775;51.958;7.976;2023-12-22T16:56:52;14.07;;;1.10;;
1563;SDS011;775;51.958;7.976;2023-12-22T16:59:41;14.17;;;1.20;;
1563;SDS011;775;51.958;7.976;2023-12-22T17:02:28;14.53;;;1.20;;
1563;SDS011;775;51.958;7.976;2023-12-22T17:05:16;13.97;;;1.20;;
1563;SDS011;775;51.958;7.976;2023-12-22T17:08:03;14.80;;;1.20;;
1563;SDS011;775;51.958;7.976;2023-12-22T17:10:51;14.93;;;1.10;;
1563;SDS011;775;51.958;7.976;2023-12-22T17:13:38;14.23;;;1.30;;
1563;SDS011;775;51.958;7.976;2023-12-22T17:16:27;14.90;;;1.20;;
1563;SDS011;775;51.958;7.976;2023-12-22T17:19:14;14.40;;;1.10;;
1563;SDS011;775;51.958;7.976;2023-12-22T17:22:02;13.93;;;1.20;;
1563;SDS011;775;51.958;7.976;2023-12-22T17:24:49;14.40;;;1.20;;
1563;SDS011;775;51.958;7.976;2023-12-22T17:27:37;15.50;;;1.20;;